createdAt,value
2018-08-03T00:00:10.478Z,99.90
2018-08-03T00:02:39.622Z,99.90
2018-08-03T00:05:08.559Z,99.90
2018-08-03T00:07:37.479Z,99.90
2018-08-03T00:10:07.042Z,99.90
2018-08-03T00:12:36.050Z,99.90
2018-08-03T00:15:05.910Z,99.90
2018-08-03T00:17:34.811Z,99.90
2018-08-03T00:20:04.370Z,99.90
2018-08-03T00:22:33.267Z,99.90
2018-08-03T00:25:02.864Z,99.90
2018-08-03T00:27:32.079Z,99.90
2018-08-03T00:30:00.986Z,99.90
2018-08-03T00:32:29.882Z,99.90
2018-08-03T00:34:58.846Z,99.90
2018-08-03T00:37:27.719Z,99.90
2018-08-03T00:42:25.126Z,99.90
2018-08-03T00:44:54.092Z,99.90
2018-08-03T00:49:51.592Z,99.90
2018-08-03T00:52:20.538Z,99.90
2018-08-03T00:54:49.398Z,99.90
2018-08-03T00:57:18.322Z,99.90
2018-08-03T00:59:47.246Z,99.90
2018-08-03T01:02:16.225Z,99.90
2018-08-03T01:04:45.146Z,99.90
2018-08-03T01:07:13.994Z,99.90
2018-08-03T01:09:42.942Z,99.90
2018-08-03T01:12:11.896Z,99.90
2018-08-03T01:14:40.775Z,99.90
2018-08-03T01:17:10.066Z,99.90
2018-08-03T01:22:07.506Z,99.90
2018-08-03T01:24:36.429Z,99.90
2018-08-03T01:29:34.047Z,99.90
2018-08-03T01:32:03.015Z,99.90
2018-08-03T01:34:31.905Z,99.90
2018-08-03T01:37:00.762Z,99.90
2018-08-03T01:41:58.180Z,99.90
2018-08-03T01:44:27.062Z,99.90
2018-08-03T01:46:55.951Z,99.90
2018-08-03T01:49:24.894Z,99.90
2018-08-03T01:51:53.811Z,99.90
2018-08-03T01:54:23.198Z,99.90
2018-08-03T01:59:20.866Z,99.90
2018-08-03T02:01:49.753Z,99.90
2018-08-03T02:04:18.644Z,99.90
2018-08-03T02:06:47.847Z,99.90
2018-08-03T02:09:16.779Z,99.90
2018-08-03T02:11:45.672Z,99.90
2018-08-03T02:14:14.626Z,99.90
2018-08-03T02:16:43.591Z,99.90
2018-08-03T02:19:13.026Z,99.90
2018-08-03T02:24:10.524Z,99.90
2018-08-03T02:26:39.422Z,99.90
2018-08-03T02:29:08.367Z,99.90
2018-08-03T02:31:37.338Z,99.90
2018-08-03T02:34:06.870Z,99.90
2018-08-03T02:36:36.987Z,99.90
2018-08-03T02:39:07.975Z,99.90
2018-08-03T02:41:37.160Z,99.90
2018-08-03T02:44:06.363Z,99.90
2018-08-03T02:46:35.371Z,99.90
2018-08-03T02:49:04.270Z,99.90
2018-08-03T02:51:33.176Z,99.90
2018-08-03T02:54:02.167Z,99.90
2018-08-03T02:56:31.046Z,99.90
2018-08-03T02:58:59.898Z,99.90
2018-08-03T03:01:29.102Z,99.90
2018-08-03T03:03:58.054Z,99.90
2018-08-03T03:06:26.957Z,99.90
2018-08-03T03:08:55.829Z,99.90
2018-08-03T03:11:24.649Z,99.90
2018-08-03T03:13:53.513Z,99.90
2018-08-03T03:16:22.386Z,99.90
2018-08-03T03:18:51.293Z,99.90
2018-08-03T03:23:48.690Z,99.90
2018-08-03T03:26:17.578Z,99.90
2018-08-03T03:28:46.473Z,99.90
2018-08-03T03:31:15.635Z,99.90
2018-08-03T03:33:44.943Z,99.90
2018-08-03T03:36:13.811Z,99.90
2018-08-03T03:38:43.310Z,99.90
2018-08-03T03:41:12.686Z,99.90
2018-08-03T03:43:41.598Z,99.90
2018-08-03T03:46:10.492Z,99.90
2018-08-03T03:48:39.374Z,99.90
2018-08-03T03:51:08.366Z,99.90
2018-08-03T03:53:37.242Z,99.90
2018-08-03T03:56:06.371Z,99.90
2018-08-03T03:58:35.275Z,99.90
2018-08-03T04:01:04.161Z,99.90
2018-08-03T04:03:33.139Z,99.90
2018-08-03T04:08:30.642Z,99.90
2018-08-03T04:10:59.562Z,99.90
2018-08-03T04:13:28.419Z,99.90
2018-08-03T04:15:57.606Z,99.90
2018-08-03T04:18:26.527Z,99.90
2018-08-03T04:20:55.984Z,99.90
2018-08-03T04:23:25.130Z,99.90
2018-08-03T04:25:54.182Z,99.90
2018-08-03T04:28:23.100Z,99.90
2018-08-03T04:30:51.999Z,99.90
2018-08-03T04:33:20.874Z,99.90
2018-08-03T04:35:49.841Z,99.90
2018-08-03T04:38:18.910Z,99.90
2018-08-03T04:40:48.453Z,99.90
2018-08-03T04:43:17.442Z,99.90
2018-08-03T04:45:46.428Z,99.90
2018-08-03T04:48:15.450Z,99.90
2018-08-03T04:50:44.414Z,99.90
2018-08-03T04:53:13.574Z,99.90
2018-08-03T04:55:42.454Z,99.90
2018-08-03T04:58:11.318Z,99.90
2018-08-03T05:00:40.282Z,99.90
2018-08-03T05:03:09.178Z,99.90
2018-08-03T05:05:38.578Z,99.90
2018-08-03T05:08:07.551Z,99.90
2018-08-03T05:13:05.006Z,99.90
2018-08-03T05:15:34.013Z,99.90
2018-08-03T05:18:02.826Z,99.90
2018-08-03T05:20:31.733Z,99.90
2018-08-03T05:23:00.790Z,99.90
2018-08-03T05:25:29.666Z,99.90
2018-08-03T05:27:58.587Z,99.90
2018-08-03T05:30:27.603Z,99.90
2018-08-03T05:32:56.414Z,99.90
2018-08-03T05:35:25.361Z,99.90
2018-08-03T05:37:54.203Z,99.90
2018-08-03T05:40:23.134Z,99.90
2018-08-03T05:42:52.053Z,99.90
2018-08-03T05:45:21.012Z,99.90
2018-08-03T05:47:49.836Z,99.90
2018-08-03T05:50:18.784Z,99.90
2018-08-03T05:52:47.698Z,99.90
2018-08-03T05:55:16.658Z,99.90
2018-08-03T05:57:45.558Z,99.90
2018-08-03T06:00:14.515Z,99.90
2018-08-03T06:02:43.429Z,99.90
2018-08-03T06:05:12.340Z,99.90
2018-08-03T06:07:41.218Z,99.90
2018-08-03T06:10:10.117Z,99.90
2018-08-03T06:12:38.993Z,99.90
2018-08-03T06:15:08.788Z,99.90
2018-08-03T06:17:37.860Z,99.90
2018-08-03T06:20:08.088Z,99.90
2018-08-03T06:22:37.038Z,99.90
2018-08-03T06:25:06.842Z,99.90
2018-08-03T06:27:35.825Z,99.90
2018-08-03T06:30:05.800Z,99.90
2018-08-03T06:32:35.239Z,99.90
2018-08-03T06:35:04.111Z,99.90
2018-08-03T06:40:02.202Z,99.90
2018-08-03T06:42:31.070Z,99.90
2018-08-03T06:44:59.972Z,99.90
2018-08-03T06:47:28.970Z,99.90
2018-08-03T06:49:57.890Z,99.90
2018-08-03T06:52:26.759Z,99.90
2018-08-03T06:54:55.832Z,99.90
2018-08-03T06:57:25.294Z,99.90
2018-08-03T06:59:54.452Z,99.90
2018-08-03T07:02:23.882Z,99.90
2018-08-03T07:04:52.762Z,99.90
2018-08-03T07:07:21.710Z,99.90
2018-08-03T07:09:50.820Z,99.90
2018-08-03T07:12:19.738Z,99.90
2018-08-03T07:14:48.619Z,99.90
2018-08-03T07:17:17.487Z,99.80
2018-08-03T07:19:46.372Z,99.70
2018-08-03T07:22:15.267Z,99.80
2018-08-03T07:27:12.802Z,99.20
2018-08-03T07:29:43.987Z,99.00
2018-08-03T07:32:12.863Z,98.90
2018-08-03T07:34:42.807Z,98.90
2018-08-03T07:37:12.051Z,98.60
2018-08-03T07:39:41.345Z,98.10
2018-08-03T07:42:10.254Z,98.10
2018-08-03T07:44:43.822Z,98.20
2018-08-03T07:47:12.662Z,98.10
2018-08-03T07:49:41.563Z,98.00
2018-08-03T07:52:11.502Z,97.60
2018-08-03T07:54:43.280Z,97.50
2018-08-03T07:57:12.288Z,97.60
2018-08-03T07:59:41.450Z,97.50
2018-08-03T08:02:10.410Z,97.30
2018-08-03T08:04:41.431Z,97.30
2018-08-03T08:07:10.330Z,97.00
2018-08-03T08:12:08.016Z,96.90
2018-08-03T08:14:38.562Z,96.70
2018-08-03T08:17:07.514Z,96.80
2018-08-03T08:19:36.548Z,96.60
2018-08-03T08:22:05.507Z,96.40
2018-08-03T08:27:02.934Z,96.60
2018-08-03T08:29:38.750Z,96.30
2018-08-03T08:32:07.731Z,96.30
2018-08-03T08:34:36.622Z,96.30
2018-08-03T08:39:34.071Z,96.30
2018-08-03T08:42:03.003Z,96.40
2018-08-03T08:47:00.949Z,96.20
2018-08-03T08:49:30.043Z,95.90
2018-08-03T08:51:59.651Z,95.80
2018-08-03T08:54:28.735Z,95.80
2018-08-03T08:56:58.469Z,95.60
2018-08-03T08:59:27.896Z,95.50
2018-08-03T09:01:57.468Z,94.80
2018-08-03T09:04:26.377Z,95.30
2018-08-03T09:06:55.798Z,95.00
2018-08-03T09:09:24.657Z,95.20
2018-08-03T09:14:22.162Z,95.50
2018-08-03T09:16:51.106Z,94.90
2018-08-03T09:19:20.558Z,94.80
2018-08-03T09:21:49.443Z,94.90
2018-08-03T09:24:20.274Z,94.30
2018-08-03T09:26:49.558Z,94.40
2018-08-03T09:29:18.610Z,94.00
2018-08-03T09:31:47.537Z,93.90
2018-08-03T09:34:16.412Z,93.80
2018-08-03T09:36:46.074Z,93.70
2018-08-03T09:39:15.015Z,93.60
2018-08-03T09:41:44.007Z,93.50
2018-08-03T09:46:41.668Z,93.60
2018-08-03T09:49:10.933Z,93.70
2018-08-03T09:51:39.896Z,93.90
2018-08-03T09:54:08.815Z,93.30
2018-08-03T09:56:37.735Z,92.90
2018-08-03T09:59:07.212Z,92.40
2018-08-03T10:01:36.359Z,92.70
2018-08-03T10:04:05.347Z,92.90
2018-08-03T10:09:02.961Z,92.80
2018-08-03T10:11:32.070Z,92.80
2018-08-03T10:14:05.319Z,92.50
2018-08-03T10:19:02.930Z,92.40
2018-08-03T10:21:31.919Z,92.00
2018-08-03T10:24:00.797Z,92.30
2018-08-03T10:26:29.665Z,92.50
2018-08-03T10:28:58.726Z,92.50
2018-08-03T10:31:28.049Z,92.00
2018-08-03T10:33:56.908Z,91.90
2018-08-03T10:36:25.872Z,91.70
2018-08-03T10:38:55.162Z,91.40
2018-08-03T10:41:24.031Z,91.10
2018-08-03T10:46:22.484Z,91.30
2018-08-03T10:48:52.566Z,91.40
2018-08-03T10:51:21.436Z,91.50
2018-08-03T10:53:50.309Z,91.70
2018-08-03T10:56:19.494Z,91.50
2018-08-03T10:58:48.980Z,91.50
2018-08-03T11:01:17.914Z,90.90
2018-08-03T11:03:46.802Z,90.80
2018-08-03T11:06:16.039Z,91.00
2018-08-03T11:08:45.014Z,91.00
2018-08-03T11:11:13.982Z,90.70
2018-08-03T11:13:42.935Z,90.40
2018-08-03T11:16:11.818Z,90.10
2018-08-03T11:18:40.928Z,90.40
2018-08-03T11:21:10.346Z,90.20
2018-08-03T11:23:39.260Z,90.10
2018-08-03T11:26:08.159Z,89.10
2018-08-03T11:28:37.156Z,88.70
2018-08-03T11:31:06.155Z,88.00
2018-08-03T11:33:35.078Z,88.70
2018-08-03T11:36:04.047Z,88.30
2018-08-03T11:38:32.982Z,88.80
2018-08-03T11:41:01.867Z,88.40
2018-08-03T11:43:31.084Z,88.40
2018-08-03T11:48:28.667Z,87.50
2018-08-03T11:50:57.570Z,87.70
2018-08-03T11:53:26.455Z,86.60
2018-08-03T11:55:55.411Z,84.90
2018-08-03T11:58:24.407Z,86.50
2018-08-03T12:00:53.371Z,86.70
2018-08-03T12:03:22.263Z,85.90
2018-08-03T12:05:51.142Z,86.20
2018-08-03T12:08:20.093Z,86.10
2018-08-03T12:10:49.193Z,85.40
2018-08-03T12:13:18.435Z,83.70
2018-08-03T12:15:47.398Z,85.10
2018-08-03T12:18:16.287Z,84.60
2018-08-03T12:20:46.439Z,85.40
2018-08-03T12:23:15.426Z,84.80
2018-08-03T12:25:44.568Z,83.60
2018-08-03T12:28:13.749Z,83.60
2018-08-03T12:30:42.715Z,84.10
2018-08-03T12:33:12.039Z,84.10
2018-08-03T12:35:41.562Z,84.00
2018-08-03T12:38:10.564Z,83.80
2018-08-03T12:40:39.670Z,83.40
2018-08-03T12:43:08.877Z,82.30
2018-08-03T12:45:38.134Z,81.80
2018-08-03T12:48:07.483Z,82.10
2018-08-03T12:50:36.443Z,82.10
2018-08-03T12:53:05.411Z,82.60
2018-08-03T12:55:35.589Z,82.20
2018-08-03T12:58:04.654Z,82.00
2018-08-03T13:00:34.180Z,81.70
2018-08-03T13:03:03.142Z,81.10
2018-08-03T13:05:32.412Z,81.20
2018-08-03T13:08:01.697Z,81.60
2018-08-03T13:10:31.137Z,80.90
2018-08-03T13:13:00.337Z,81.10
2018-08-03T13:15:29.461Z,81.10
2018-08-03T13:17:58.707Z,81.10
2018-08-03T13:20:28.947Z,81.50
2018-08-03T13:23:03.166Z,81.50
2018-08-03T13:25:32.949Z,81.10
2018-08-03T13:28:04.799Z,81.30
2018-08-03T13:30:33.826Z,80.60
2018-08-03T13:33:03.034Z,80.40
2018-08-03T13:35:34.091Z,80.90
2018-08-03T13:38:03.315Z,80.90
2018-08-03T13:40:32.510Z,81.00
2018-08-03T13:43:05.119Z,81.30
2018-08-03T13:45:52.474Z,81.10
2018-08-03T13:48:21.852Z,81.50
2018-08-03T13:53:19.448Z,82.00
2018-08-03T13:55:48.291Z,82.20
2018-08-03T13:58:17.166Z,82.70
2018-08-03T14:00:46.346Z,83.10
2018-08-03T14:03:15.202Z,82.60
2018-08-03T14:05:44.139Z,81.60
2018-08-03T14:08:13.061Z,81.60
2018-08-03T14:10:42.823Z,81.20
2018-08-03T14:13:11.754Z,81.60
2018-08-03T14:15:40.749Z,82.90
2018-08-03T14:18:09.582Z,81.20
2018-08-03T14:20:38.416Z,80.20
2018-08-03T14:23:07.259Z,80.30
2018-08-03T14:25:36.437Z,79.20
2018-08-03T14:28:05.430Z,79.30
2018-08-03T14:30:34.633Z,78.60
2018-08-03T14:33:03.527Z,78.70
2018-08-03T14:35:35.819Z,79.00
2018-08-03T14:40:33.452Z,78.00
2018-08-03T14:45:31.059Z,76.10
2018-08-03T14:47:59.978Z,76.70
2018-08-03T14:50:29.012Z,77.00
2018-08-03T14:52:59.440Z,74.40
2018-08-03T14:57:56.906Z,73.90
2018-08-03T15:00:26.574Z,74.70
2018-08-03T15:02:55.814Z,73.50
2018-08-03T15:05:25.575Z,73.70
2018-08-03T15:07:54.722Z,72.30
2018-08-03T15:10:23.817Z,72.80
2018-08-03T15:12:52.721Z,73.20
2018-08-03T15:15:21.802Z,71.00
2018-08-03T15:17:51.805Z,69.60
2018-08-03T15:20:20.674Z,68.50
2018-08-03T15:22:49.578Z,68.10
2018-08-03T15:25:18.482Z,67.20
2018-08-03T15:27:47.522Z,65.60
2018-08-03T15:30:16.653Z,65.30
2018-08-03T15:32:45.622Z,62.20
2018-08-03T15:35:14.642Z,62.00
2018-08-03T15:37:43.495Z,61.10
2018-08-03T15:40:19.174Z,59.90
2018-08-03T15:42:48.009Z,57.60
2018-08-03T15:45:16.847Z,56.60
2018-08-03T15:47:45.667Z,57.30
2018-08-03T15:50:15.384Z,56.90
2018-08-03T15:55:12.770Z,55.30
2018-08-03T15:57:41.656Z,56.20
2018-08-03T16:00:10.510Z,56.20
2018-08-03T16:02:39.446Z,56.20
2018-08-03T16:05:09.047Z,56.60
2018-08-03T16:07:37.977Z,56.60
2018-08-03T16:10:06.965Z,57.30
2018-08-03T16:12:35.872Z,57.50
2018-08-03T16:15:05.295Z,58.30
2018-08-03T16:17:34.329Z,57.90
2018-08-03T16:22:32.268Z,59.20
2018-08-03T16:27:29.675Z,59.20
2018-08-03T16:29:58.510Z,59.50
2018-08-03T16:32:27.370Z,59.70
2018-08-03T16:34:56.627Z,60.20
2018-08-03T16:37:25.483Z,60.40
2018-08-03T16:39:54.352Z,60.60
2018-08-03T16:42:23.223Z,61.50
2018-08-03T16:44:52.119Z,62.20
2018-08-03T16:47:21.266Z,62.80
2018-08-03T16:52:18.630Z,62.70
2018-08-03T16:57:16.053Z,62.20
2018-08-03T16:59:44.897Z,62.20
2018-08-03T17:02:13.746Z,62.50
2018-08-03T17:04:42.587Z,61.90
2018-08-03T17:07:11.419Z,62.20
2018-08-03T17:09:40.278Z,62.80
2018-08-03T17:12:09.134Z,64.50
2018-08-03T17:14:37.975Z,66.50
2018-08-03T17:17:06.946Z,66.60
2018-08-03T17:19:35.802Z,67.00
2018-08-03T17:22:04.700Z,67.20
2018-08-03T17:24:33.985Z,66.90
2018-08-03T17:29:31.414Z,65.80
2018-08-03T17:32:00.629Z,65.10
2018-08-03T17:34:29.402Z,64.50
2018-08-03T17:36:58.289Z,65.20
2018-08-03T17:39:27.130Z,66.10
2018-08-03T17:41:56.019Z,66.90
2018-08-03T17:46:53.389Z,70.00
2018-08-03T17:51:51.092Z,72.70
2018-08-03T17:54:19.927Z,74.10
2018-08-03T17:56:48.811Z,75.60
2018-08-03T17:59:17.711Z,76.00
2018-08-03T18:01:46.831Z,76.20
2018-08-03T18:04:15.703Z,78.30
2018-08-03T18:06:44.561Z,80.70
2018-08-03T18:09:13.466Z,82.30
2018-08-03T18:11:42.362Z,83.40
2018-08-03T18:14:11.244Z,84.00
2018-08-03T18:16:40.079Z,84.70
2018-08-03T18:21:37.582Z,87.20
2018-08-03T18:24:06.450Z,87.80
2018-08-03T18:26:35.330Z,89.90
2018-08-03T18:29:04.264Z,90.20
2018-08-03T18:31:33.082Z,91.10
2018-08-03T18:36:30.457Z,92.90
2018-08-03T18:38:59.514Z,92.70
2018-08-03T18:41:28.410Z,93.30
2018-08-03T18:43:57.266Z,93.80
2018-08-03T18:46:26.174Z,93.80
2018-08-03T18:48:55.033Z,94.20
2018-08-03T18:51:24.479Z,94.60
2018-08-03T18:53:53.330Z,95.10
2018-08-03T18:56:22.228Z,95.60
2018-08-03T18:58:51.123Z,96.00
2018-08-03T19:01:19.952Z,96.30
2018-08-03T19:03:48.809Z,96.40
2018-08-03T19:06:17.654Z,96.60
2018-08-03T19:08:46.505Z,96.90
2018-08-03T19:11:15.472Z,97.00
2018-08-03T19:13:44.366Z,97.10
2018-08-03T19:16:13.586Z,97.10
2018-08-03T19:18:42.502Z,97.20
2018-08-03T19:21:11.450Z,97.40
2018-08-03T19:23:40.368Z,97.60
2018-08-03T19:26:09.201Z,97.60
2018-08-03T19:28:38.290Z,97.60
2018-08-03T19:31:07.180Z,97.60
2018-08-03T19:33:36.018Z,97.60
2018-08-03T19:36:04.922Z,97.00
2018-08-03T19:38:33.774Z,97.10
2018-08-03T19:41:02.894Z,97.10
2018-08-03T19:43:31.746Z,97.10
2018-08-03T19:46:00.607Z,97.20
2018-08-03T19:48:29.448Z,97.30
2018-08-03T19:50:58.397Z,97.40
2018-08-03T19:53:27.286Z,97.40
2018-08-03T19:55:56.106Z,97.40
2018-08-03T19:58:24.981Z,97.40
2018-08-03T20:00:53.853Z,97.40
2018-08-03T20:03:22.685Z,97.80
2018-08-03T20:05:51.580Z,97.90
2018-08-03T20:08:20.522Z,98.00
2018-08-03T20:10:49.415Z,98.10
2018-08-03T20:13:18.311Z,98.30
2018-08-03T20:15:47.284Z,98.50
2018-08-03T20:18:16.858Z,98.40
2018-08-03T20:20:45.726Z,98.60
2018-08-03T20:23:14.605Z,98.70
2018-08-03T20:25:46.933Z,98.90
2018-08-03T20:28:16.779Z,99.00
2018-08-03T20:30:46.086Z,99.20
2018-08-03T20:33:14.966Z,99.30
2018-08-03T20:35:43.857Z,99.50
2018-08-03T20:38:12.721Z,99.60
2018-08-03T20:40:41.578Z,99.90
2018-08-03T20:43:10.806Z,99.90
2018-08-03T20:45:39.674Z,99.90
2018-08-03T20:48:08.600Z,99.90
2018-08-03T20:53:06.182Z,99.90
2018-08-03T20:55:35.092Z,99.90
2018-08-03T20:58:04.121Z,99.90
2018-08-03T21:00:32.919Z,99.90
2018-08-03T21:03:02.006Z,99.90
2018-08-03T21:05:30.830Z,99.90
2018-08-03T21:07:59.666Z,99.90
2018-08-03T21:10:28.542Z,99.90
2018-08-03T21:12:57.393Z,99.90
2018-08-03T21:15:26.270Z,99.90
2018-08-03T21:20:23.938Z,99.90
2018-08-03T21:25:21.278Z,99.90
2018-08-03T21:27:50.141Z,99.90
2018-08-03T21:30:18.992Z,99.90
2018-08-03T21:32:48.047Z,99.90
2018-08-03T21:35:16.901Z,99.90
2018-08-03T21:37:45.749Z,99.90
2018-08-03T21:40:14.664Z,99.90
2018-08-03T21:42:43.523Z,99.90
2018-08-03T21:45:12.552Z,99.90
2018-08-03T21:47:41.407Z,99.90
2018-08-03T21:50:10.308Z,99.90
2018-08-03T21:52:39.128Z,99.90
2018-08-03T21:55:07.974Z,99.90
2018-08-03T21:57:37.128Z,99.90
2018-08-03T22:00:09.028Z,99.90
2018-08-03T22:02:37.903Z,99.90
2018-08-03T22:05:06.761Z,99.90
2018-08-03T22:07:35.641Z,99.90
2018-08-03T22:10:04.938Z,99.90
2018-08-03T22:12:33.811Z,99.90
2018-08-03T22:15:02.753Z,99.90
2018-08-03T22:17:31.634Z,99.90
2018-08-03T22:20:00.505Z,99.90
2018-08-03T22:22:29.329Z,99.90
2018-08-03T22:24:58.397Z,99.90
2018-08-03T22:27:27.887Z,99.90
2018-08-03T22:29:56.766Z,99.90
2018-08-03T22:32:25.685Z,99.90
2018-08-03T22:37:23.001Z,99.90
2018-08-03T22:42:20.783Z,99.90
2018-08-03T22:44:49.683Z,99.90
2018-08-03T22:47:18.701Z,99.90
2018-08-03T22:49:47.631Z,99.90
2018-08-03T22:52:17.130Z,99.90
2018-08-03T22:54:45.953Z,99.90
2018-08-03T22:59:43.392Z,99.90
2018-08-03T23:02:12.274Z,99.90
2018-08-03T23:04:41.213Z,99.90
2018-08-03T23:07:10.055Z,99.90
2018-08-03T23:09:38.943Z,99.90
2018-08-03T23:12:08.135Z,99.90
2018-08-03T23:14:36.980Z,99.90
2018-08-03T23:36:00.711Z,99.90
2018-08-03T23:38:29.614Z,99.90
2018-08-03T23:43:27.342Z,99.90
2018-08-03T23:45:56.198Z,99.90
2018-08-03T23:48:25.090Z,99.90
2018-08-03T23:53:22.787Z,99.90
2018-08-03T23:55:51.614Z,99.90
2018-08-03T23:58:20.446Z,99.90
